createdAt,value
2023-05-18T00:00:45.756Z,101267.91
2023-05-18T00:01:48.389Z,101260.09
2023-05-18T00:02:50.823Z,101263.91
2023-05-18T00:03:55.190Z,101260.53
2023-05-18T00:04:57.926Z,101266.31
2023-05-18T00:06:04.994Z,101265.47
2023-05-18T00:07:07.429Z,101256.56
2023-05-18T00:08:10.066Z,101259.56
2023-05-18T00:09:12.738Z,101268.09
2023-05-18T00:10:15.125Z,101273.59
2023-05-18T00:11:18.094Z,101264.94
2023-05-18T00:12:20.571Z,101271.78
2023-05-18T00:13:22.872Z,101266.50
2023-05-18T00:14:25.343Z,101275.00
2023-05-18T00:15:27.901Z,101275.25
2023-05-18T00:16:30.378Z,101271.84
2023-05-18T00:17:33.143Z,101274.84
2023-05-18T00:18:36.238Z,101278.06
2023-05-18T00:19:38.510Z,101281.06
2023-05-18T00:20:41.482Z,101284.06
2023-05-18T00:21:46.448Z,101285.13
2023-05-18T00:22:51.003Z,101286.41
2023-05-18T00:23:53.410Z,101286.66
2023-05-18T00:24:55.756Z,101283.28
2023-05-18T00:26:02.418Z,101278.84
2023-05-18T00:27:04.838Z,101277.41
2023-05-18T00:28:07.893Z,101280.38
2023-05-18T00:29:10.887Z,101286.97
2023-05-18T00:30:13.728Z,101280.84
2023-05-18T00:31:16.537Z,101281.91
2023-05-18T00:32:18.949Z,101282.13
2023-05-18T00:33:22.293Z,101287.88
2023-05-18T00:34:25.044Z,101281.75
2023-05-18T00:35:27.457Z,101286.44
2023-05-18T00:36:30.054Z,101286.91
2023-05-18T00:37:32.394Z,101286.28
2023-05-18T00:38:34.764Z,101286.28
2023-05-18T00:39:37.917Z,101287.56
2023-05-18T00:40:40.383Z,101287.81
2023-05-18T00:41:42.777Z,101287.19
2023-05-18T00:42:45.052Z,101289.13
2023-05-18T00:43:47.871Z,101284.66
2023-05-18T00:44:50.332Z,101288.72
2023-05-18T00:45:52.725Z,101289.78
2023-05-18T00:46:55.055Z,101288.31
2023-05-18T00:47:57.507Z,101291.31
2023-05-18T00:49:02.288Z,101292.38
2023-05-18T00:50:04.958Z,101292.03
2023-05-18T00:51:07.681Z,101293.91
2023-05-18T00:52:10.241Z,101289.69
2023-05-18T00:53:13.380Z,101293.53
2023-05-18T00:54:16.917Z,101297.38
2023-05-18T00:55:19.895Z,101296.13
2023-05-18T00:56:26.585Z,101294.69
2023-05-18T00:57:30.000Z,101294.88
2023-05-18T00:58:32.408Z,101290.66
2023-05-18T00:59:35.064Z,101297.03
2023-05-18T01:00:37.930Z,101298.34
2023-05-18T01:01:46.971Z,101294.97
2023-05-18T01:02:51.597Z,101300.69
2023-05-18T01:03:56.882Z,101304.53
2023-05-18T01:05:00.918Z,101305.56
2023-05-18T01:06:05.989Z,101303.91
2023-05-18T01:07:08.457Z,101301.59
2023-05-18T01:08:10.984Z,101299.06
2023-05-18T01:09:14.608Z,101305.66
2023-05-18T01:10:20.010Z,101303.13
2023-05-18T01:11:54.944Z,101307.97
2023-05-18T01:13:03.134Z,101306.75
2023-05-18T01:14:29.281Z,101305.06
2023-05-18T01:15:37.516Z,101304.44
2023-05-18T01:16:45.965Z,101314.00
2023-05-18T01:18:05.075Z,101307.84
2023-05-18T01:19:30.922Z,101306.41
2023-05-18T01:20:57.882Z,101304.94
2023-05-18T01:22:17.358Z,101313.44
2023-05-18T01:23:45.113Z,101309.19
2023-05-18T01:24:49.398Z,101309.66
2023-05-18T01:25:54.493Z,101315.41
2023-05-18T01:27:00.924Z,101314.75
2023-05-18T01:28:10.361Z,101307.56
2023-05-18T01:29:14.545Z,101314.38
2023-05-18T01:30:18.335Z,101312.91
2023-05-18T01:31:21.033Z,101316.75
2023-05-18T01:32:23.408Z,101324.38
2023-05-18T01:33:26.542Z,101318.22
2023-05-18T01:34:29.151Z,101325.66
2023-05-18T01:35:32.771Z,101323.13
2023-05-18T01:36:35.182Z,101333.50
2023-05-18T01:37:37.479Z,101328.22
2023-05-18T01:38:43.121Z,101325.06
2023-05-18T01:39:46.419Z,101327.00
2023-05-18T01:41:18.437Z,101321.72
2023-05-18T01:42:27.131Z,101323.00
2023-05-18T01:43:36.674Z,101320.66
2023-05-18T01:45:07.843Z,101328.72
2023-05-18T01:46:28.527Z,101326.63
2023-05-18T01:47:33.697Z,101321.34
2023-05-18T01:48:39.304Z,101321.78
2023-05-18T01:49:54.749Z,101330.88
2023-05-18T01:50:58.927Z,101326.66
2023-05-18T01:52:07.605Z,101327.72
2023-05-18T01:53:15.725Z,101330.69
2023-05-18T01:54:21.432Z,101329.00
2023-05-18T01:55:27.157Z,101333.91
2023-05-18T01:56:32.263Z,101326.72
2023-05-18T01:57:37.119Z,101325.00
2023-05-18T01:58:40.398Z,101331.56
2023-05-18T01:59:43.328Z,101323.53
2023-05-18T02:00:47.165Z,101325.47
2023-05-18T02:01:50.945Z,101324.81
2023-05-18T02:03:02.163Z,101327.81
2023-05-18T02:04:12.008Z,101319.78
2023-05-18T02:05:14.633Z,101318.91
2023-05-18T02:06:17.279Z,101326.34
2023-05-18T02:07:20.051Z,101324.63
2023-05-18T02:08:22.458Z,101324.88
2023-05-18T02:09:24.854Z,101330.59
2023-05-18T02:10:27.325Z,101323.16
2023-05-18T02:11:30.278Z,101328.03
2023-05-18T02:12:33.632Z,101330.19
2023-05-18T02:13:38.350Z,101325.72
2023-05-18T02:14:40.783Z,101321.28
2023-05-18T02:15:44.763Z,101328.72
2023-05-18T02:16:53.451Z,101323.44
2023-05-18T02:17:58.634Z,101319.81
2023-05-18T02:19:01.269Z,101330.00
2023-05-18T02:20:07.468Z,101323.66
2023-05-18T02:21:10.637Z,101330.44
2023-05-18T02:22:13.004Z,101326.81
2023-05-18T02:23:16.230Z,101326.00
2023-05-18T02:24:20.155Z,101322.38
2023-05-18T02:25:22.629Z,101325.34
2023-05-18T02:26:25.017Z,101325.56
2023-05-18T02:27:28.473Z,101328.09
2023-05-18T02:28:30.936Z,101324.75
2023-05-18T02:29:33.305Z,101324.75
2023-05-18T02:30:35.968Z,101324.94
2023-05-18T02:31:39.062Z,101327.69
2023-05-18T02:32:42.901Z,101335.09
2023-05-18T02:33:45.236Z,101331.53
2023-05-18T02:34:50.442Z,101338.91
2023-05-18T02:35:55.153Z,101329.81
2023-05-18T02:36:58.262Z,101341.06
2023-05-18T02:38:01.830Z,101341.06
2023-05-18T02:39:07.027Z,101334.91
2023-05-18T02:40:11.162Z,101335.75
2023-05-18T02:41:13.694Z,101336.84
2023-05-18T02:42:15.998Z,101331.31
2023-05-18T02:43:18.351Z,101339.59
2023-05-18T02:44:20.725Z,101333.22
2023-05-18T02:45:24.259Z,101339.78
2023-05-18T02:46:26.887Z,101342.75
2023-05-18T02:47:29.608Z,101329.00
2023-05-18T02:48:31.993Z,101334.72
2023-05-18T02:49:34.558Z,101341.09
2023-05-18T02:50:37.098Z,101339.38
2023-05-18T02:51:40.016Z,101336.84
2023-05-18T02:52:42.415Z,101345.09
2023-05-18T02:53:45.204Z,101341.50
2023-05-18T02:54:49.994Z,101344.47
2023-05-18T02:55:59.510Z,101349.97
2023-05-18T02:57:06.733Z,101339.41
2023-05-18T02:58:17.689Z,101353.34
2023-05-18T02:59:34.742Z,101348.06
2023-05-18T03:00:37.137Z,101348.94
2023-05-18T03:01:41.297Z,101353.78
2023-05-18T03:02:44.668Z,101350.22
2023-05-18T03:03:47.496Z,101347.47
2023-05-18T03:04:54.513Z,101347.66
2023-05-18T03:05:56.909Z,101346.00
2023-05-18T03:07:03.007Z,101354.22
2023-05-18T03:08:06.863Z,101357.81
2023-05-18T03:09:09.222Z,101348.09
2023-05-18T03:10:16.916Z,101358.03
2023-05-18T03:11:19.279Z,101356.56
2023-05-18T03:12:21.876Z,101358.44
2023-05-18T03:13:24.919Z,101352.94
2023-05-18T03:14:27.326Z,101356.78
2023-05-18T03:15:33.269Z,101346.84
2023-05-18T03:16:39.050Z,101351.50
2023-05-18T03:17:45.987Z,101353.38
2023-05-18T03:18:48.648Z,101359.75
2023-05-18T03:19:51.589Z,101355.31
2023-05-18T03:20:53.903Z,101356.13
2023-05-18T03:21:58.166Z,101357.19
2023-05-18T03:23:00.877Z,101361.03
2023-05-18T03:24:03.622Z,101361.84
2023-05-18T03:25:08.143Z,101359.09
2023-05-18T03:26:11.894Z,101361.84
2023-05-18T03:27:16.847Z,101361.84
2023-05-18T03:28:22.766Z,101363.78
2023-05-18T03:29:25.099Z,101362.91
2023-05-18T03:30:27.705Z,101362.91
2023-05-18T03:31:30.190Z,101363.97
2023-05-18T03:32:39.474Z,101359.53
2023-05-18T03:33:41.768Z,101363.13
2023-05-18T03:34:45.079Z,101363.97
2023-05-18T03:35:49.387Z,101370.53
2023-05-18T03:36:52.686Z,101364.19
2023-05-18T03:37:55.645Z,101368.84
2023-05-18T03:38:57.973Z,101368.63
2023-05-18T03:40:11.084Z,101365.88
2023-05-18T03:41:13.770Z,101365.88
2023-05-18T03:42:16.218Z,101368.84
2023-05-18T03:43:19.089Z,101364.19
2023-05-18T03:44:22.440Z,101369.69
2023-05-18T03:45:25.054Z,101370.31
2023-05-18T03:46:27.478Z,101372.22
2023-05-18T03:47:30.233Z,101369.47
2023-05-18T03:48:32.571Z,101379.41
2023-05-18T03:49:35.268Z,101380.03
2023-05-18T03:50:37.831Z,101376.66
2023-05-18T03:51:40.628Z,101378.34
2023-05-18T03:52:44.762Z,101380.25
2023-05-18T03:53:47.376Z,101372.03
2023-05-18T03:54:50.413Z,101381.09
2023-05-18T03:55:52.777Z,101381.75
2023-05-18T03:56:55.987Z,101382.78
2023-05-18T03:57:59.390Z,101384.50
2023-05-18T03:59:02.245Z,101379.19
2023-05-18T04:00:08.055Z,101384.50
2023-05-18T04:01:19.718Z,101384.69
2023-05-18T04:02:22.310Z,101388.06
2023-05-18T04:03:27.278Z,101389.78
2023-05-18T04:04:31.408Z,101387.84
2023-05-18T04:05:34.015Z,101387.84
2023-05-18T04:06:36.330Z,101384.88
2023-05-18T04:07:44.409Z,101383.00
2023-05-18T04:08:46.873Z,101391.03
2023-05-18T04:09:49.627Z,101391.63
2023-05-18T04:10:52.844Z,101380.63
2023-05-18T04:11:56.053Z,101395.03
2023-05-18T04:12:58.535Z,101384.88
2023-05-18T04:14:01.310Z,101396.50
2023-05-18T04:15:04.237Z,101393.53
2023-05-18T04:16:08.194Z,101396.94
2023-05-18T04:17:10.741Z,101396.72
2023-05-18T04:18:13.935Z,101397.13
2023-05-18T04:19:19.478Z,101403.25
2023-05-18T04:20:21.770Z,101404.72
2023-05-18T04:21:24.080Z,101407.91
2023-05-18T04:22:30.027Z,101400.28
2023-05-18T04:23:39.522Z,101405.34
2023-05-18T04:24:43.232Z,101406.59
2023-05-18T04:25:45.830Z,101400.44
2023-05-18T04:26:49.325Z,101404.69
2023-05-18T04:27:53.076Z,101406.75
2023-05-18T04:29:00.423Z,101404.22
2023-05-18T04:30:03.040Z,101399.53
2023-05-18T04:31:06.287Z,101404.38
2023-05-18T04:32:09.068Z,101401.59
2023-05-18T04:33:16.037Z,101403.47
2023-05-18T04:34:20.401Z,101406.00
2023-05-18T04:35:25.454Z,101407.63
2023-05-18T04:36:30.839Z,101398.25
2023-05-18T04:37:34.682Z,101407.09
2023-05-18T04:38:38.634Z,101399.44
2023-05-18T04:39:42.490Z,101407.66
2023-05-18T04:40:47.413Z,101403.56
2023-05-18T04:41:50.969Z,101396.75
2023-05-18T04:42:53.405Z,101393.72
2023-05-18T04:44:03.768Z,101400.41
2023-05-18T04:45:06.836Z,101405.41
2023-05-18T04:46:09.597Z,101406.81
2023-05-18T04:47:11.962Z,101404.19
2023-05-18T04:48:14.588Z,101400.06
2023-05-18T04:49:16.966Z,101400.38
2023-05-18T04:50:20.213Z,101404.53
2023-05-18T04:51:22.679Z,101405.91
2023-05-18T04:52:25.114Z,101408.34
2023-05-18T04:53:27.710Z,101406.72
2023-05-18T04:54:33.094Z,101403.44
2023-05-18T04:55:35.717Z,101412.84
2023-05-18T04:56:43.760Z,101411.28
2023-05-18T04:57:46.056Z,101407.13
2023-05-18T04:58:49.834Z,101410.16
2023-05-18T04:59:53.470Z,101407.69
2023-05-18T05:00:57.665Z,101406.84
2023-05-18T05:02:01.555Z,101411.84
2023-05-18T05:03:04.110Z,101410.16
2023-05-18T05:04:07.587Z,101410.44
2023-05-18T05:05:10.050Z,101397.13
2023-05-18T05:06:12.806Z,101400.97
2023-05-18T05:07:15.133Z,101407.56
2023-05-18T05:08:21.355Z,101405.91
2023-05-18T05:09:23.682Z,101400.66
2023-05-18T05:10:26.595Z,101406.41
2023-05-18T05:11:29.302Z,101405.56
2023-05-18T05:12:32.919Z,101406.41
2023-05-18T05:13:36.384Z,101412.16
2023-05-18T05:14:38.773Z,101410.19
2023-05-18T05:15:41.396Z,101407.63
2023-05-18T05:16:43.978Z,101406.75
2023-05-18T05:17:47.836Z,101412.25
2023-05-18T05:18:50.355Z,101413.28
2023-05-18T05:19:52.863Z,101410.47
2023-05-18T05:20:55.198Z,101410.16
2023-05-18T05:21:58.230Z,101414.00
2023-05-18T05:23:01.695Z,101410.28
2023-05-18T05:24:06.308Z,101413.84
2023-05-18T05:25:09.012Z,101411.81
2023-05-18T05:26:12.676Z,101416.16
2023-05-18T05:27:16.557Z,101413.28
2023-05-18T05:28:19.155Z,101410.19
2023-05-18T05:29:22.629Z,101418.41
2023-05-18T05:30:25.020Z,101424.44
2023-05-18T05:31:27.497Z,101415.16
2023-05-18T05:33:42.010Z,101418.53
2023-05-18T05:34:47.105Z,101416.44
2023-05-18T05:35:53.361Z,101421.84
2023-05-18T05:36:55.761Z,101418.06
2023-05-18T05:37:58.856Z,101421.28
2023-05-18T05:39:01.217Z,101413.91
2023-05-18T05:40:06.649Z,101418.47
2023-05-18T05:41:13.791Z,101417.19
2023-05-18T05:42:17.495Z,101416.16
2023-05-18T05:43:19.790Z,101419.63
2023-05-18T05:44:24.409Z,101410.47
2023-05-18T05:45:28.941Z,101407.50
2023-05-18T05:46:34.340Z,101408.16
2023-05-18T05:47:37.661Z,101411.84
2023-05-18T05:48:40.453Z,101416.38
2023-05-18T05:49:43.188Z,101412.53
2023-05-18T05:50:47.057Z,101408.94
2023-05-18T05:51:51.029Z,101411.78
2023-05-18T05:52:54.788Z,101410.13
2023-05-18T05:53:58.828Z,101414.94
2023-05-18T05:55:01.313Z,101412.16
2023-05-18T05:56:03.975Z,101413.31
2023-05-18T05:57:08.572Z,101411.94
2023-05-18T05:58:11.374Z,101408.34
2023-05-18T05:59:13.845Z,101418.09
2023-05-18T06:00:16.561Z,101410.03
2023-05-18T06:01:29.303Z,101409.75
2023-05-18T06:02:32.129Z,101413.66
2023-05-18T06:03:36.186Z,101411.16
2023-05-18T06:04:41.856Z,101418.13
2023-05-18T06:05:44.878Z,101415.59
2023-05-18T06:06:49.567Z,101415.56
2023-05-18T06:07:52.989Z,101416.44
2023-05-18T06:08:55.618Z,101408.88
2023-05-18T06:09:59.273Z,101412.47
2023-05-18T06:11:02.073Z,101409.91
2023-05-18T06:12:05.450Z,101419.94
2023-05-18T06:13:08.948Z,101411.78
2023-05-18T06:14:24.034Z,101412.31
2023-05-18T06:15:27.146Z,101411.69
2023-05-18T06:16:29.538Z,101408.59
2023-05-18T06:17:32.088Z,101413.63
2023-05-18T06:18:36.567Z,101427.25
2023-05-18T06:19:40.730Z,101418.53
2023-05-18T06:20:43.072Z,101421.81
2023-05-18T06:21:45.659Z,101419.84
2023-05-18T06:22:48.511Z,101430.97
2023-05-18T06:23:58.919Z,101418.88
2023-05-18T06:25:16.026Z,101422.72
2023-05-18T06:26:38.533Z,101420.44
2023-05-18T06:28:01.180Z,101417.88
2023-05-18T06:29:32.867Z,101430.13
2023-05-18T06:31:04.470Z,101426.69
2023-05-18T06:32:23.049Z,101428.56
2023-05-18T06:33:29.545Z,101423.13
2023-05-18T06:34:34.782Z,101427.25
2023-05-18T06:35:37.089Z,101425.78
2023-05-18T06:36:39.523Z,101434.97
2023-05-18T06:37:41.854Z,101433.53
2023-05-18T06:38:44.195Z,101425.06
2023-05-18T06:39:46.526Z,101424.94
2023-05-18T06:40:49.060Z,101424.91
2023-05-18T06:41:52.315Z,101425.69
2023-05-18T06:42:58.465Z,101422.22
2023-05-18T06:44:12.790Z,101424.06
2023-05-18T06:45:37.050Z,101427.56
2023-05-18T06:46:49.199Z,101436.38
2023-05-18T06:47:58.680Z,101430.63
2023-05-18T06:49:02.587Z,101436.38
2023-05-18T06:50:08.321Z,101433.50
2023-05-18T06:51:11.194Z,101430.88
2023-05-18T06:52:13.945Z,101441.13
2023-05-18T06:53:18.605Z,101430.84
2023-05-18T06:54:20.982Z,101432.03
2023-05-18T06:55:23.807Z,101437.50
2023-05-18T06:56:26.833Z,101437.00
2023-05-18T06:57:32.189Z,101441.34
2023-05-18T06:58:35.006Z,101445.66
2023-05-18T06:59:41.319Z,101443.78
2023-05-18T07:00:44.024Z,101440.25
2023-05-18T07:01:48.227Z,101451.06
2023-05-18T07:02:51.738Z,101449.00
2023-05-18T07:03:54.298Z,101454.50
2023-05-18T07:04:58.214Z,101446.94
2023-05-18T07:06:00.909Z,101450.47
2023-05-18T07:07:03.728Z,101454.94
2023-05-18T07:08:07.655Z,101442.25
2023-05-18T07:09:10.058Z,101447.56
2023-05-18T07:10:12.461Z,101441.53
2023-05-18T07:11:15.065Z,101435.03
2023-05-18T07:12:17.780Z,101433.91
2023-05-18T07:13:21.131Z,101444.84
2023-05-18T07:14:24.237Z,101442.88
2023-05-18T07:15:26.825Z,101444.03
2023-05-18T07:16:29.313Z,101444.03
2023-05-18T07:17:31.866Z,101437.53
2023-05-18T07:18:34.296Z,101437.03
2023-05-18T07:19:36.653Z,101439.53
2023-05-18T07:20:38.968Z,101437.84
2023-05-18T07:21:41.440Z,101443.16
2023-05-18T07:22:44.128Z,101441.53
2023-05-18T07:23:46.418Z,101438.38
2023-05-18T07:24:49.812Z,101436.94
2023-05-18T07:25:52.555Z,101440.25
2023-05-18T07:26:54.925Z,101435.47
2023-05-18T07:27:57.275Z,101450.56
2023-05-18T07:28:59.561Z,101443.81
2023-05-18T07:30:02.003Z,101441.19
2023-05-18T07:31:05.079Z,101438.91
2023-05-18T07:32:07.750Z,101440.81
2023-05-18T07:33:10.855Z,101440.81
2023-05-18T07:34:13.302Z,101435.38
2023-05-18T07:35:17.211Z,101440.25
2023-05-18T07:36:19.551Z,101438.69
2023-05-18T07:37:22.419Z,101436.81
2023-05-18T07:38:26.417Z,101440.25
2023-05-18T07:39:30.070Z,101434.44
2023-05-18T07:40:32.639Z,101437.84
2023-05-18T07:41:35.134Z,101438.06
2023-05-18T07:42:39.176Z,101434.75
2023-05-18T07:43:41.714Z,101436.50
2023-05-18T07:44:44.095Z,101434.31
2023-05-18T07:45:46.409Z,101435.44
2023-05-18T07:46:48.716Z,101432.63
2023-05-18T07:47:51.154Z,101446.50
2023-05-18T07:48:53.556Z,101442.63
2023-05-18T07:49:56.121Z,101435.63
2023-05-18T07:50:58.575Z,101423.66
2023-05-18T07:52:07.387Z,101434.91
2023-05-18T07:53:09.670Z,101440.53
2023-05-18T07:54:12.038Z,101431.78
2023-05-18T07:55:14.363Z,101443.88
2023-05-18T07:56:17.014Z,101438.34
2023-05-18T07:57:20.136Z,101433.88
2023-05-18T07:58:22.414Z,101436.22
2023-05-18T07:59:24.785Z,101432.34
2023-05-18T08:00:28.206Z,101436.59
2023-05-18T08:01:38.779Z,101442.22
2023-05-18T08:02:41.186Z,101440.56
2023-05-18T08:03:43.845Z,101437.22
2023-05-18T08:04:47.770Z,101441.19
2023-05-18T08:05:50.108Z,101448.03
2023-05-18T08:06:55.046Z,101437.94
2023-05-18T08:07:57.293Z,101445.22
2023-05-18T08:08:59.637Z,101440.94
2023-05-18T08:10:01.942Z,101440.94
2023-05-18T08:11:05.206Z,101437.31
2023-05-18T08:12:07.989Z,101433.69
2023-05-18T08:13:10.371Z,101440.44
2023-05-18T08:14:12.725Z,101432.00
2023-05-18T08:15:15.042Z,101441.81
2023-05-18T08:16:17.355Z,101443.56
2023-05-18T08:17:19.984Z,101432.34
2023-05-18T08:18:23.406Z,101440.13
2023-05-18T08:19:26.184Z,101432.00
2023-05-18T08:20:31.450Z,101426.91
2023-05-18T08:21:33.784Z,101427.75
2023-05-18T08:22:36.502Z,101426.91
2023-05-18T08:23:39.126Z,101421.59
2023-05-18T08:24:41.566Z,101427.09
2023-05-18T08:25:43.966Z,101420.63
2023-05-18T08:26:46.245Z,101416.78
2023-05-18T08:27:48.847Z,101416.25
2023-05-18T08:28:51.179Z,101417.69
2023-05-18T08:29:53.487Z,101424.16
2023-05-18T08:30:56.215Z,101424.75
2023-05-18T08:31:58.681Z,101427.38
2023-05-18T08:33:02.412Z,101434.72
2023-05-18T08:34:06.362Z,101427.72
2023-05-18T08:35:10.550Z,101425.53
2023-05-18T08:36:12.924Z,101419.94
2023-05-18T08:37:15.187Z,101424.81
2023-05-18T08:38:17.626Z,101420.09
2023-05-18T08:39:20.127Z,101418.50
2023-05-18T08:40:22.451Z,101427.53
2023-05-18T08:41:39.084Z,101425.09
2023-05-18T08:42:54.712Z,101429.72
2023-05-18T08:44:03.292Z,101423.94
2023-05-18T08:45:14.320Z,101418.72
2023-05-18T08:46:22.187Z,101424.16
2023-05-18T08:47:26.895Z,101425.16
2023-05-18T08:48:32.414Z,101420.19
2023-05-18T08:49:35.683Z,101415.78
2023-05-18T08:50:38.581Z,101434.63
2023-05-18T08:51:45.363Z,101424.09
2023-05-18T08:52:48.656Z,101433.13
2023-05-18T08:53:54.882Z,101428.16
2023-05-18T08:54:57.719Z,101434.44
2023-05-18T08:56:01.658Z,101430.31
2023-05-18T08:57:10.221Z,101430.91
2023-05-18T08:58:16.830Z,101425.41
2023-05-18T08:59:24.162Z,101417.34
2023-05-18T09:00:27.267Z,101423.28
2023-05-18T09:01:29.887Z,101425.84
2023-05-18T09:02:33.911Z,101421.13
2023-05-18T09:03:38.168Z,101419.22
2023-05-18T09:04:42.755Z,101424.31
2023-05-18T09:05:46.488Z,101420.09
2023-05-18T09:06:49.746Z,101417.03
2023-05-18T09:07:52.483Z,101416.25
2023-05-18T09:08:57.884Z,101415.47
2023-05-18T09:10:01.850Z,101418.84
2023-05-18T09:11:06.631Z,101419.44
2023-05-18T09:12:09.815Z,101419.19
2023-05-18T09:13:13.878Z,101422.84
2023-05-18T09:14:16.443Z,101416.72
2023-05-18T09:15:19.033Z,101412.53
2023-05-18T09:16:21.506Z,101422.59
2023-05-18T09:17:24.222Z,101419.56
2023-05-18T09:18:28.412Z,101415.94
2023-05-18T09:19:31.145Z,101416.75
2023-05-18T09:20:33.490Z,101422.34
2023-05-18T09:21:36.010Z,101412.28
2023-05-18T09:22:41.258Z,101408.94
2023-05-18T09:23:44.830Z,101410.59
2023-05-18T09:24:47.792Z,101405.28
2023-05-18T09:25:52.574Z,101408.09
2023-05-18T09:26:54.960Z,101408.38
2023-05-18T09:27:57.343Z,101409.22
2023-05-18T09:29:00.377Z,101419.59
2023-05-18T09:30:03.753Z,101408.69
2023-05-18T09:31:12.841Z,101408.97
2023-05-18T09:32:15.269Z,101413.44
2023-05-18T09:33:19.357Z,101402.81
2023-05-18T09:34:21.909Z,101408.44
2023-05-18T09:35:24.930Z,101409.25
2023-05-18T09:36:29.401Z,101411.78
2023-05-18T09:37:32.316Z,101398.63
2023-05-18T09:38:39.821Z,101407.56
2023-05-18T09:39:42.545Z,101400.00
2023-05-18T09:40:46.223Z,101396.06
2023-05-18T09:41:55.913Z,101400.25
2023-05-18T09:42:58.261Z,101400.78
2023-05-18T09:44:05.345Z,101396.56
2023-05-18T09:45:10.866Z,101396.56
2023-05-18T09:46:13.968Z,101392.34
2023-05-18T09:47:17.806Z,101386.19
2023-05-18T09:48:21.158Z,101398.75
2023-05-18T09:49:24.711Z,101396.50
2023-05-18T09:50:27.585Z,101394.53
2023-05-18T09:51:30.153Z,101395.38
2023-05-18T09:52:41.199Z,101397.56
2023-05-18T09:54:06.903Z,101397.56
2023-05-18T09:55:10.614Z,101392.81
2023-05-18T09:56:15.349Z,101392.25
2023-05-18T09:57:21.148Z,101389.47
2023-05-18T09:58:23.782Z,101389.75
2023-05-18T09:59:26.232Z,101392.56
2023-05-18T10:00:28.978Z,101397.59
2023-05-18T10:01:31.381Z,101387.56
2023-05-18T10:02:38.384Z,101394.81
2023-05-18T10:03:41.166Z,101402.09
2023-05-18T10:04:44.855Z,101399.28
2023-05-18T10:05:48.220Z,101402.09
2023-05-18T10:06:51.476Z,101398.47
2023-05-18T10:07:57.471Z,101392.00
2023-05-18T10:09:04.912Z,101396.78
2023-05-18T10:10:09.121Z,101399.03
2023-05-18T10:11:12.066Z,101401.81
2023-05-18T10:12:20.053Z,101394.59
2023-05-18T10:13:26.623Z,101394.84
2023-05-18T10:14:36.575Z,101394.84
2023-05-18T10:15:47.348Z,101388.13
2023-05-18T10:17:00.355Z,101390.63
2023-05-18T10:18:11.155Z,101385.03
2023-05-18T10:19:13.589Z,101383.91
2023-05-18T10:20:19.478Z,101385.59
2023-05-18T10:21:22.793Z,101382.78
2023-05-18T10:22:26.411Z,101390.88
2023-05-18T10:23:32.000Z,101389.22
2023-05-18T10:24:38.391Z,101384.50
2023-05-18T10:25:42.770Z,101379.72
2023-05-18T10:26:47.817Z,101376.09
2023-05-18T10:27:51.636Z,101374.44
2023-05-18T10:28:57.006Z,101382.81
2023-05-18T10:29:59.847Z,101385.94
2023-05-18T10:31:02.227Z,101381.16
2023-05-18T10:32:07.681Z,101371.09
2023-05-18T10:33:20.636Z,101362.41
2023-05-18T10:34:32.995Z,101365.72
2023-05-18T10:35:38.575Z,101379.16
2023-05-18T10:36:43.021Z,101373.56
2023-05-18T10:37:49.272Z,101357.91
2023-05-18T10:38:52.332Z,101365.16
2023-05-18T10:39:56.098Z,101364.91
2023-05-18T10:41:04.674Z,101364.06
2023-05-18T10:42:08.904Z,101369.91
2023-05-18T10:43:12.017Z,101371.59
2023-05-18T10:44:15.956Z,101358.41
2023-05-18T10:45:18.883Z,101359.84
2023-05-18T10:46:26.801Z,101356.50
2023-05-18T10:47:29.751Z,101375.00
2023-05-18T10:48:32.337Z,101364.31
2023-05-18T10:49:36.502Z,101362.38
2023-05-18T10:50:40.325Z,101357.59
2023-05-18T10:51:47.515Z,101360.09
2023-05-18T10:52:50.467Z,101362.91
2023-05-18T10:53:56.120Z,101370.16
2023-05-18T10:55:00.292Z,101364.56
2023-05-18T10:56:02.816Z,101362.06
2023-05-18T10:57:05.499Z,101362.38
2023-05-18T10:58:14.315Z,101358.72
2023-05-18T10:59:18.718Z,101358.47
2023-05-18T11:00:21.353Z,101367.72
2023-05-18T11:01:23.936Z,101364.66
2023-05-18T11:02:27.601Z,101363.84
2023-05-18T11:03:33.256Z,101358.78
2023-05-18T11:04:36.437Z,101361.06
2023-05-18T11:05:42.899Z,101370.28
2023-05-18T11:06:54.710Z,101369.78
2023-05-18T11:08:01.689Z,101356.63
2023-05-18T11:09:04.214Z,101364.47
2023-05-18T11:10:11.518Z,101360.03
2023-05-18T11:11:16.489Z,101355.56
2023-05-18T11:12:23.034Z,101355.84
2023-05-18T11:13:29.661Z,101353.06
2023-05-18T11:14:32.729Z,101358.66
2023-05-18T11:15:53.978Z,101351.91
2023-05-18T11:17:31.830Z,101363.38
2023-05-18T11:18:50.616Z,101353.88
2023-05-18T11:20:08.993Z,101353.88
2023-05-18T11:21:36.456Z,101347.44
2023-05-18T11:22:43.030Z,101341.84
2023-05-18T11:24:16.622Z,101351.63
2023-05-18T11:25:25.740Z,101342.94
2023-05-18T11:26:31.515Z,101338.16
2023-05-18T11:27:34.365Z,101339.25
2023-05-18T11:28:43.781Z,101338.13
2023-05-18T11:29:47.740Z,101340.34
2023-05-18T11:30:51.653Z,101337.25
2023-05-18T11:31:55.253Z,101336.13
2023-05-18T11:33:25.116Z,101341.44
2023-05-18T11:34:46.398Z,101329.13
2023-05-18T11:36:11.730Z,101336.06
2023-05-18T11:37:16.067Z,101328.53
2023-05-18T11:38:18.653Z,101333.00
2023-05-18T11:39:25.076Z,101328.22
2023-05-18T11:40:47.960Z,101337.69
2023-05-18T11:42:01.266Z,101339.69
2023-05-18T11:43:05.024Z,101332.94
2023-05-18T11:44:18.277Z,101333.22
2023-05-18T11:45:20.608Z,101332.16
2023-05-18T11:46:22.889Z,101331.06
2023-05-18T11:47:31.789Z,101337.22
2023-05-18T11:48:34.484Z,101332.75
2023-05-18T11:49:42.946Z,101334.41
2023-05-18T11:50:47.129Z,101329.94
2023-05-18T11:52:01.741Z,101333.88
2023-05-18T11:53:04.165Z,101336.66
2023-05-18T11:54:09.254Z,101333.56
2023-05-18T11:55:14.560Z,101337.22
2023-05-18T11:56:17.507Z,101333.56
2023-05-18T11:57:25.139Z,101334.94
2023-05-18T11:58:27.443Z,101333.00
2023-05-18T11:59:32.230Z,101329.91
2023-05-18T12:00:36.310Z,101333.22
2023-05-18T12:01:38.709Z,101329.84
2023-05-18T12:02:45.882Z,101336.56
2023-05-18T12:03:50.836Z,101332.06
2023-05-18T12:04:55.154Z,101326.44
2023-05-18T12:06:00.827Z,101328.13
2023-05-18T12:07:06.850Z,101334.56
2023-05-18T12:08:09.856Z,101334.28
2023-05-18T12:09:13.585Z,101324.72
2023-05-18T12:10:16.352Z,101317.19
2023-05-18T12:11:18.824Z,101316.34
2023-05-18T12:12:23.539Z,101320.81
2023-05-18T12:13:27.887Z,101330.09
2023-05-18T12:14:31.542Z,101321.72
2023-05-18T12:15:34.144Z,101317.75
2023-05-18T12:16:37.033Z,101313.00
2023-05-18T12:17:42.848Z,101313.00
2023-05-18T12:18:52.131Z,101313.53
2023-05-18T12:19:54.775Z,101309.59
2023-05-18T12:20:57.146Z,101316.88
2023-05-18T12:21:59.541Z,101322.47
2023-05-18T12:23:01.830Z,101320.81